Relevés horaires Matro (Suisse)


Relevés horaires à Matro - Dimanche 21 Nov. 2021
Heure UTC1 Température [°C] Vent [km/h] Hum. [%] Pres.4 [hPa] Visi. [Km] Nébu. [octa] Préc.5 [mm] Cond.
2m. Res. Ros. Dir.2 Vit. Moy. Raf.3
23:00 -1.6 -7.3 -2.4 SE 20.4 -- 27.8 94 850(-0.3/3h) -- -- -- --
22:00 -1.9 -7.4 -1.9 SE 18.5 -- 24.1 100 850(-0.5/3h) -- -- -- --
21:00 -1.8 -7 -1.8 SE 16.7 -- 25.9 100 850(-0.3/3h) -- -- -- --
20:00 -1.8 -5.8 -2.0 SE 11.1 -- 14.8 99 850(-0.2/3h) -- -- -- --
19:00 -1.9 -6.3 -1.9 SSE 13.0 -- 25.9 100 850(0.1/3h) -- -- -- --
18:00 -1.5 -6.6 -2.6 SSE 16.7 -- 40.7 92 850(-0.2/3h) -- -- -- --
17:00 -1.8 -8.6 -2.1 SSE 27.8 -- 40.7 98 850(-0.5/3h) -- -- -- --
16:00 -1.5 -8.4 -1.6 SE 29.6 -- 35.2 99 850(-0.9/3h) -- -- -- --
15:00 -0.6 -4.8 -2.0 SE 13.0 -- 29.6 90 850(-1.3/3h) -- -- -- --
14:00 0.6 -4 -2.4 SSE 16.7 -- 29.6 80 850(-1.9/3h) -- -- -- --
13:00 2.1 -2.6 -5.3 SSE 20.4 -- 29.6 58 850(-2.3/3h) -- -- -- --
12:00 2.8 -1.2 -5.3 SSE 16.7 -- 27.8 55 850(-1.8/3h) -- -- -- --
11:00 3.8 0.6 -3.5 SSE 13.0 -- 20.4 59 850(-1.2/3h) -- -- -- --
10:00 3.0 0 -5.6 SSE 11.1 -- 16.7 53 850(-0.7/3h) -- -- -- --
09:00 3.1 1.1 -6.6 SE 7.4 -- 20.4 49 850(-0.7/3h) -- -- -- --
08:00 2.8 -0.6 -7.9 SE 13.0 -- 20.4 45 850(-1.1/3h) -- -- -- --
07:00 3.1 -0.9 -8.1 SSE 16.7 -- 18.5 43 850(-1.5/3h) -- -- -- --
06:00 3.3 -0.3 -7.7 SSE 14.8 -- 14.8 44 850(-1.9/3h) -- -- -- --
05:00 3.7 0.9 -8.9 ESE 11.1 -- 14.8 39 850(-2.0/3h) -- -- -- --
04:00 3.9 0.4 -8.1 SE 14.8 -- 14.8 41 850(-2.0/3h) -- -- -- --
03:00 3.9 1.1 -6.7 SE 11.1 -- 14.8 46 850(-2.0/3h) -- -- -- --
02:00 4.3 1.2 -6.7 SE 13.0 -- 14.8 45 850(-1.8/3h) -- -- -- --
01:00 4.5 2.2 -7.8 SE 9.3 -- 11.1 40 850(-1.9/3h) -- -- -- --
00:00 5.0 3.3 -7.7 SE 7.4 -- 18.5 39 850(-1.5/3h) -- -- -- --

1 Coordinated Universal Time. Actuellement il est 20:00 locale et 18:00 UTC.

2 Le vent souffle depuis la direction indiquée vers la direction oposée.

3 Les rafales max. sont disponible 40 min après l'heure du relevé.

4 Pour les stations d'altitude (plus de 600m) le géopotentiel du niveau le plus proche de la pression obligatoire est indiqué.

5 Les stations disposant d'un diffuseur peuvent indiquer "trace". Cela signifie que des précipitations ont touchés le sol mais que la quantité est inférieure à 0.1 mm.

Copyright

Les données affichées sur cette page sont la propriété exclusive de Météo Suisse.

Récapitulatif de la journée
Température [°C] Vent [km/h] Ensoleillement4 [h] Precipitations totale5 [mm] Pression [Hpa]
Min1 Max.2 Moy.3 Max. Min Max.
3.6 3.8 0 40.7 7 h 30 min 0 850.0 850.0

1 Température minimale relevée entre 18:00 UTC la veille et 18:00 UTC le jour donné.

2 Température maximale relevée entre 06:00 UTC le jour donné et 06:00 UTC le lendemain.

3 Vent moyen de la journée basé sur les relevés horaires.

4 Ensoleillement en heures relevé entre 06:00 UTC la veille et 06:00 UTC le jour donné.

5 Précipitations totales tombées entre 06:00 UTC la jour donné et 06:00 UTC le lendemain.

Graphiques horaires